sensor_id;sensor_type;location;lat;lon;timestamp;temperature;humidity
40538;DHT22;27925;41.874;12.526;2023-04-23T00:00:16;17.30;63.50
40538;DHT22;27925;41.874;12.526;2023-04-23T00:02:43;17.20;63.50
40538;DHT22;27925;41.874;12.526;2023-04-23T00:05:09;17.30;63.50
40538;DHT22;27925;41.874;12.526;2023-04-23T00:07:37;17.30;63.40
40538;DHT22;27925;41.874;12.526;2023-04-23T00:10:04;17.20;63.40
40538;DHT22;27925;41.874;12.526;2023-04-23T00:12:33;17.20;63.50
40538;DHT22;27925;41.874;12.526;2023-04-23T00:14:59;17.20;63.20
40538;DHT22;27925;41.874;12.526;2023-04-23T00:17:25;17.20;62.80
40538;DHT22;27925;41.874;12.526;2023-04-23T00:19:51;17.20;62.40
40538;DHT22;27925;41.874;12.526;2023-04-23T00:22:16;17.10;62.40
40538;DHT22;27925;41.874;12.526;2023-04-23T00:24:44;17.10;62.10
40538;DHT22;27925;41.874;12.526;2023-04-23T00:27:10;17.10;62.10
40538;DHT22;27925;41.874;12.526;2023-04-23T00:29:36;17.00;62.30
40538;DHT22;27925;41.874;12.526;2023-04-23T00:32:01;17.00;62.60
40538;DHT22;27925;41.874;12.526;2023-04-23T00:34:27;16.90;62.70
40538;DHT22;27925;41.874;12.526;2023-04-23T00:36:53;16.90;62.90
40538;DHT22;27925;41.874;12.526;2023-04-23T00:39:19;16.90;63.00
40538;DHT22;27925;41.874;12.526;2023-04-23T00:41:45;16.90;63.20
40538;DHT22;27925;41.874;12.526;2023-04-23T00:44:11;16.90;63.40
40538;DHT22;27925;41.874;12.526;2023-04-23T00:46:37;16.90;63.40
40538;DHT22;27925;41.874;12.526;2023-04-23T00:49:03;16.90;63.20
40538;DHT22;27925;41.874;12.526;2023-04-23T00:51:29;16.90;63.30
40538;DHT22;27925;41.874;12.526;2023-04-23T00:53:56;16.80;63.30
40538;DHT22;27925;41.874;12.526;2023-04-23T00:56:23;16.80;63.30
40538;DHT22;27925;41.874;12.526;2023-04-23T00:58:50;16.80;63.10
40538;DHT22;27925;41.874;12.526;2023-04-23T01:01:17;16.70;62.80
40538;DHT22;27925;41.874;12.526;2023-04-23T01:03:45;16.70;62.80
40538;DHT22;27925;41.874;12.526;2023-04-23T01:06:13;16.70;62.60
40538;DHT22;27925;41.874;12.526;2023-04-23T01:08:39;16.70;62.20
40538;DHT22;27925;41.874;12.526;2023-04-23T01:11:07;16.70;62.30
40538;DHT22;27925;41.874;12.526;2023-04-23T01:13:33;16.70;62.20
40538;DHT22;27925;41.874;12.526;2023-04-23T01:15:59;16.70;62.50
40538;DHT22;27925;41.874;12.526;2023-04-23T01:18:25;16.60;62.70
40538;DHT22;27925;41.874;12.526;2023-04-23T01:20:52;16.60;62.70
40538;DHT22;27925;41.874;12.526;2023-04-23T01:23:18;16.60;62.50
40538;DHT22;27925;41.874;12.526;2023-04-23T01:25:44;16.60;62.60
40538;DHT22;27925;41.874;12.526;2023-04-23T01:28:10;16.50;62.60
40538;DHT22;27925;41.874;12.526;2023-04-23T01:30:37;16.50;63.00
40538;DHT22;27925;41.874;12.526;2023-04-23T01:33:03;16.50;63.40
40538;DHT22;27925;41.874;12.526;2023-04-23T01:35:31;16.50;63.60
40538;DHT22;27925;41.874;12.526;2023-04-23T01:37:58;16.50;63.80
40538;DHT22;27925;41.874;12.526;2023-04-23T01:40:25;16.50;64.10
40538;DHT22;27925;41.874;12.526;2023-04-23T01:42:50;16.40;64.30
40538;DHT22;27925;41.874;12.526;2023-04-23T01:45:16;16.40;64.50
40538;DHT22;27925;41.874;12.526;2023-04-23T01:47:44;16.40;64.70
40538;DHT22;27925;41.874;12.526;2023-04-23T01:50:11;16.30;64.80
40538;DHT22;27925;41.874;12.526;2023-04-23T01:52:37;16.30;65.10
40538;DHT22;27925;41.874;12.526;2023-04-23T01:55:03;16.30;65.20
40538;DHT22;27925;41.874;12.526;2023-04-23T01:57:29;16.30;65.50
40538;DHT22;27925;41.874;12.526;2023-04-23T02:00:06;16.30;65.30
40538;DHT22;27925;41.874;12.526;2023-04-23T02:02:36;16.20;65.40
40538;DHT22;27925;41.874;12.526;2023-04-23T02:05:02;16.20;65.20
40538;DHT22;27925;41.874;12.526;2023-04-23T02:07:32;16.20;65.30
40538;DHT22;27925;41.874;12.526;2023-04-23T02:09:58;16.30;65.20
40538;DHT22;27925;41.874;12.526;2023-04-23T02:12:24;16.30;65.10
40538;DHT22;27925;41.874;12.526;2023-04-23T02:14:51;16.20;65.10
40538;DHT22;27925;41.874;12.526;2023-04-23T02:17:19;16.20;65.50
40538;DHT22;27925;41.874;12.526;2023-04-23T02:19:46;16.20;65.70
40538;DHT22;27925;41.874;12.526;2023-04-23T02:22:11;16.10;65.60
40538;DHT22;27925;41.874;12.526;2023-04-23T02:24:37;16.10;65.90
40538;DHT22;27925;41.874;12.526;2023-04-23T02:27:03;16.10;66.00
40538;DHT22;27925;41.874;12.526;2023-04-23T02:29:29;16.20;66.30
40538;DHT22;27925;41.874;12.526;2023-04-23T02:31:55;16.20;66.30
40538;DHT22;27925;41.874;12.526;2023-04-23T02:34:21;16.10;66.30
40538;DHT22;27925;41.874;12.526;2023-04-23T02:36:47;16.10;66.40
40538;DHT22;27925;41.874;12.526;2023-04-23T02:39:12;16.10;66.70
40538;DHT22;27925;41.874;12.526;2023-04-23T02:41:38;16.00;66.70
40538;DHT22;27925;41.874;12.526;2023-04-23T02:44:04;16.00;66.90
40538;DHT22;27925;41.874;12.526;2023-04-23T02:46:29;16.00;66.90
40538;DHT22;27925;41.874;12.526;2023-04-23T02:48:56;15.90;66.90
40538;DHT22;27925;41.874;12.526;2023-04-23T02:51:21;15.90;66.80
40538;DHT22;27925;41.874;12.526;2023-04-23T02:53:47;15.90;67.00
40538;DHT22;27925;41.874;12.526;2023-04-23T02:56:13;15.90;67.50
40538;DHT22;27925;41.874;12.526;2023-04-23T02:58:39;15.90;66.70
40538;DHT22;27925;41.874;12.526;2023-04-23T03:01:05;15.90;67.10
40538;DHT22;27925;41.874;12.526;2023-04-23T03:03:31;15.80;66.80
40538;DHT22;27925;41.874;12.526;2023-04-23T03:05:58;15.80;66.80
40538;DHT22;27925;41.874;12.526;2023-04-23T03:08:24;15.80;66.80
40538;DHT22;27925;41.874;12.526;2023-04-23T03:10:50;15.70;66.90
40538;DHT22;27925;41.874;12.526;2023-04-23T03:13:16;15.70;67.00
40538;DHT22;27925;41.874;12.526;2023-04-23T03:15:42;15.70;67.10
40538;DHT22;27925;41.874;12.526;2023-04-23T03:18:07;15.70;67.10
40538;DHT22;27925;41.874;12.526;2023-04-23T03:20:34;15.70;67.30
40538;DHT22;27925;41.874;12.526;2023-04-23T03:23:00;15.60;67.00
40538;DHT22;27925;41.874;12.526;2023-04-23T03:25:26;15.60;67.00
40538;DHT22;27925;41.874;12.526;2023-04-23T03:27:53;15.50;67.10
40538;DHT22;27925;41.874;12.526;2023-04-23T03:30:19;15.50;67.10
40538;DHT22;27925;41.874;12.526;2023-04-23T03:32:45;15.50;67.10
40538;DHT22;27925;41.874;12.526;2023-04-23T03:35:11;15.40;67.00
40538;DHT22;27925;41.874;12.526;2023-04-23T03:37:37;15.40;67.00
40538;DHT22;27925;41.874;12.526;2023-04-23T03:40:03;15.40;66.80
40538;DHT22;27925;41.874;12.526;2023-04-23T03:42:32;15.40;66.70
40538;DHT22;27925;41.874;12.526;2023-04-23T03:44:59;15.30;66.40
40538;DHT22;27925;41.874;12.526;2023-04-23T03:47:25;15.30;66.40
40538;DHT22;27925;41.874;12.526;2023-04-23T03:49:51;15.20;66.50
40538;DHT22;27925;41.874;12.526;2023-04-23T03:52:17;15.20;66.50
40538;DHT22;27925;41.874;12.526;2023-04-23T03:54:43;15.10;66.40
40538;DHT22;27925;41.874;12.526;2023-04-23T03:57:09;15.10;66.40
40538;DHT22;27925;41.874;12.526;2023-04-23T03:59:36;15.10;66.80
40538;DHT22;27925;41.874;12.526;2023-04-23T04:02:02;15.00;66.80
40538;DHT22;27925;41.874;12.526;2023-04-23T04:04:31;15.00;67.20
40538;DHT22;27925;41.874;12.526;2023-04-23T04:06:58;15.00;67.10
40538;DHT22;27925;41.874;12.526;2023-04-23T04:09:27;15.00;66.90
40538;DHT22;27925;41.874;12.526;2023-04-23T04:11:53;15.10;67.10
40538;DHT22;27925;41.874;12.526;2023-04-23T04:14:20;15.20;67.30
40538;DHT22;27925;41.874;12.526;2023-04-23T04:16:45;15.20;67.20
40538;DHT22;27925;41.874;12.526;2023-04-23T04:19:11;15.20;67.00
40538;DHT22;27925;41.874;12.526;2023-04-23T04:21:37;15.20;67.10
40538;DHT22;27925;41.874;12.526;2023-04-23T04:24:03;15.20;67.30
40538;DHT22;27925;41.874;12.526;2023-04-23T04:26:29;15.20;67.60
40538;DHT22;27925;41.874;12.526;2023-04-23T04:28:57;15.20;67.30
40538;DHT22;27925;41.874;12.526;2023-04-23T04:31:24;15.20;67.00
40538;DHT22;27925;41.874;12.526;2023-04-23T04:33:55;15.20;67.10
40538;DHT22;27925;41.874;12.526;2023-04-23T04:36:22;15.20;68.10
40538;DHT22;27925;41.874;12.526;2023-04-23T04:38:50;15.20;67.10
40538;DHT22;27925;41.874;12.526;2023-04-23T04:41:17;15.30;67.30
40538;DHT22;27925;41.874;12.526;2023-04-23T04:43:44;15.30;67.00
40538;DHT22;27925;41.874;12.526;2023-04-23T04:46:11;15.30;67.10
40538;DHT22;27925;41.874;12.526;2023-04-23T04:48:37;15.30;66.80
40538;DHT22;27925;41.874;12.526;2023-04-23T04:51:03;15.30;66.80
40538;DHT22;27925;41.874;12.526;2023-04-23T04:53:29;15.30;66.70
40538;DHT22;27925;41.874;12.526;2023-04-23T04:55:54;15.30;66.80
40538;DHT22;27925;41.874;12.526;2023-04-23T04:58:20;15.30;66.60
40538;DHT22;27925;41.874;12.526;2023-04-23T05:00:46;15.30;66.60
40538;DHT22;27925;41.874;12.526;2023-04-23T05:03:17;15.30;66.60
40538;DHT22;27925;41.874;12.526;2023-04-23T05:05:43;15.30;66.70
40538;DHT22;27925;41.874;12.526;2023-04-23T05:08:09;15.30;66.60
40538;DHT22;27925;41.874;12.526;2023-04-23T05:10:35;15.30;66.80
40538;DHT22;27925;41.874;12.526;2023-04-23T05:13:01;15.40;66.70
40538;DHT22;27925;41.874;12.526;2023-04-23T05:15:27;15.40;66.60
40538;DHT22;27925;41.874;12.526;2023-04-23T05:17:53;15.40;66.50
40538;DHT22;27925;41.874;12.526;2023-04-23T05:20:19;15.50;66.60
40538;DHT22;27925;41.874;12.526;2023-04-23T05:22:45;15.50;66.60
40538;DHT22;27925;41.874;12.526;2023-04-23T05:25:12;15.50;66.20
40538;DHT22;27925;41.874;12.526;2023-04-23T05:27:38;15.60;66.30
40538;DHT22;27925;41.874;12.526;2023-04-23T05:30:06;15.60;66.40
40538;DHT22;27925;41.874;12.526;2023-04-23T05:32:33;15.60;66.60
40538;DHT22;27925;41.874;12.526;2023-04-23T05:34:59;15.50;66.70
40538;DHT22;27925;41.874;12.526;2023-04-23T05:37:25;15.50;67.20
40538;DHT22;27925;41.874;12.526;2023-04-23T05:39:51;15.60;67.20
40538;DHT22;27925;41.874;12.526;2023-04-23T05:42:16;15.60;67.10
40538;DHT22;27925;41.874;12.526;2023-04-23T05:44:42;15.80;67.20
40538;DHT22;27925;41.874;12.526;2023-04-23T05:47:09;15.90;67.30
40538;DHT22;27925;41.874;12.526;2023-04-23T05:49:35;16.00;67.10
40538;DHT22;27925;41.874;12.526;2023-04-23T05:52:01;16.10;67.30
40538;DHT22;27925;41.874;12.526;2023-04-23T05:54:27;16.30;67.20
40538;DHT22;27925;41.874;12.526;2023-04-23T05:56:53;16.50;67.00
40538;DHT22;27925;41.874;12.526;2023-04-23T05:59:19;16.70;66.80
40538;DHT22;27925;41.874;12.526;2023-04-23T06:01:45;16.90;66.30
40538;DHT22;27925;41.874;12.526;2023-04-23T06:04:12;17.00;66.00
40538;DHT22;27925;41.874;12.526;2023-04-23T06:06:38;16.90;65.80
40538;DHT22;27925;41.874;12.526;2023-04-23T06:09:04;16.70;66.10
40538;DHT22;27925;41.874;12.526;2023-04-23T06:11:31;16.60;66.10
40538;DHT22;27925;41.874;12.526;2023-04-23T06:13:58;16.50;66.30
40538;DHT22;27925;41.874;12.526;2023-04-23T06:16:24;16.50;66.20
40538;DHT22;27925;41.874;12.526;2023-04-23T06:18:50;16.60;66.50
40538;DHT22;27925;41.874;12.526;2023-04-23T06:21:15;16.90;66.30
40538;DHT22;27925;41.874;12.526;2023-04-23T06:23:41;17.10;65.80
40538;DHT22;27925;41.874;12.526;2023-04-23T06:26:07;17.40;65.90
40538;DHT22;27925;41.874;12.526;2023-04-23T06:28:33;17.50;65.40
40538;DHT22;27925;41.874;12.526;2023-04-23T06:30:58;17.60;65.00
40538;DHT22;27925;41.874;12.526;2023-04-23T06:33:24;17.60;64.80
40538;DHT22;27925;41.874;12.526;2023-04-23T06:35:50;17.60;64.80
40538;DHT22;27925;41.874;12.526;2023-04-23T06:38:16;17.80;64.70
40538;DHT22;27925;41.874;12.526;2023-04-23T06:40:43;18.00;64.30
40538;DHT22;27925;41.874;12.526;2023-04-23T06:43:09;18.30;63.70
40538;DHT22;27925;41.874;12.526;2023-04-23T06:45:35;18.60;62.60
40538;DHT22;27925;41.874;12.526;2023-04-23T06:48:01;18.90;61.70
40538;DHT22;27925;41.874;12.526;2023-04-23T06:50:26;19.20;61.10
40538;DHT22;27925;41.874;12.526;2023-04-23T06:52:53;19.50;60.60
40538;DHT22;27925;41.874;12.526;2023-04-23T06:55:19;19.60;60.10
40538;DHT22;27925;41.874;12.526;2023-04-23T06:57:46;19.90;60.10
40538;DHT22;27925;41.874;12.526;2023-04-23T07:00:12;20.00;59.50
40538;DHT22;27925;41.874;12.526;2023-04-23T07:02:38;20.30;59.50
40538;DHT22;27925;41.874;12.526;2023-04-23T07:05:03;20.50;59.30
40538;DHT22;27925;41.874;12.526;2023-04-23T07:07:29;20.60;59.10
40538;DHT22;27925;41.874;12.526;2023-04-23T07:09:55;20.60;59.00
40538;DHT22;27925;41.874;12.526;2023-04-23T07:12:21;20.60;59.10
40538;DHT22;27925;41.874;12.526;2023-04-23T07:14:47;20.60;59.00
40538;DHT22;27925;41.874;12.526;2023-04-23T07:17:12;20.50;59.00
40538;DHT22;27925;41.874;12.526;2023-04-23T07:19:38;20.40;59.10
40538;DHT22;27925;41.874;12.526;2023-04-23T07:22:04;20.20;59.30
40538;DHT22;27925;41.874;12.526;2023-04-23T07:24:30;20.10;59.40
40538;DHT22;27925;41.874;12.526;2023-04-23T07:26:56;20.10;59.60
40538;DHT22;27925;41.874;12.526;2023-04-23T07:29:21;20.00;59.30
40538;DHT22;27925;41.874;12.526;2023-04-23T07:31:47;20.00;59.50
40538;DHT22;27925;41.874;12.526;2023-04-23T07:34:13;20.00;59.20
40538;DHT22;27925;41.874;12.526;2023-04-23T07:36:39;20.10;59.30
40538;DHT22;27925;41.874;12.526;2023-04-23T07:39:04;20.20;58.70
40538;DHT22;27925;41.874;12.526;2023-04-23T07:41:31;20.30;58.70
40538;DHT22;27925;41.874;12.526;2023-04-23T07:43:57;20.30;58.50
40538;DHT22;27925;41.874;12.526;2023-04-23T07:46:22;20.20;58.50
40538;DHT22;27925;41.874;12.526;2023-04-23T07:48:48;20.30;59.10
40538;DHT22;27925;41.874;12.526;2023-04-23T07:51:14;20.40;58.90
40538;DHT22;27925;41.874;12.526;2023-04-23T07:53:40;20.50;58.50
40538;DHT22;27925;41.874;12.526;2023-04-23T07:56:06;20.40;58.00
40538;DHT22;27925;41.874;12.526;2023-04-23T07:58:32;20.60;57.70
40538;DHT22;27925;41.874;12.526;2023-04-23T08:00:58;20.80;57.60
40538;DHT22;27925;41.874;12.526;2023-04-23T08:03:24;20.90;57.30
40538;DHT22;27925;41.874;12.526;2023-04-23T08:05:49;20.90;57.20
40538;DHT22;27925;41.874;12.526;2023-04-23T08:08:15;21.00;57.00
40538;DHT22;27925;41.874;12.526;2023-04-23T08:10:41;21.00;57.10
40538;DHT22;27925;41.874;12.526;2023-04-23T08:13:07;21.10;57.00
40538;DHT22;27925;41.874;12.526;2023-04-23T08:15:32;21.20;57.30
40538;DHT22;27925;41.874;12.526;2023-04-23T08:17:58;21.20;57.00
40538;DHT22;27925;41.874;12.526;2023-04-23T08:20:25;21.30;56.90
40538;DHT22;27925;41.874;12.526;2023-04-23T08:22:51;21.40;56.80
40538;DHT22;27925;41.874;12.526;2023-04-23T08:25:19;21.50;56.60
40538;DHT22;27925;41.874;12.526;2023-04-23T08:27:45;21.60;56.30
40538;DHT22;27925;41.874;12.526;2023-04-23T08:30:11;21.70;56.40
40538;DHT22;27925;41.874;12.526;2023-04-23T08:32:40;21.90;56.30
40538;DHT22;27925;41.874;12.526;2023-04-23T08:35:06;22.00;56.20
40538;DHT22;27925;41.874;12.526;2023-04-23T08:37:33;22.10;56.00
40538;DHT22;27925;41.874;12.526;2023-04-23T08:39:59;22.00;56.10
40538;DHT22;27925;41.874;12.526;2023-04-23T08:42:57;22.00;56.40
40538;DHT22;27925;41.874;12.526;2023-04-23T08:45:26;22.00;55.60
40538;DHT22;27925;41.874;12.526;2023-04-23T08:47:57;22.10;56.40
40538;DHT22;27925;41.874;12.526;2023-04-23T08:50:24;22.10;56.30
40538;DHT22;27925;41.874;12.526;2023-04-23T08:52:53;22.20;55.50
40538;DHT22;27925;41.874;12.526;2023-04-23T08:55:20;22.30;55.60
40538;DHT22;27925;41.874;12.526;2023-04-23T08:57:47;22.40;55.70
40538;DHT22;27925;41.874;12.526;2023-04-23T09:00:14;22.60;55.50
40538;DHT22;27925;41.874;12.526;2023-04-23T09:02:41;22.60;55.40
40538;DHT22;27925;41.874;12.526;2023-04-23T09:05:07;22.80;55.10
40538;DHT22;27925;41.874;12.526;2023-04-23T09:07:33;23.00;54.20
40538;DHT22;27925;41.874;12.526;2023-04-23T09:10:02;23.00;53.50
40538;DHT22;27925;41.874;12.526;2023-04-23T09:12:28;23.20;53.20
40538;DHT22;27925;41.874;12.526;2023-04-23T09:14:54;23.10;52.80
40538;DHT22;27925;41.874;12.526;2023-04-23T09:17:22;23.20;52.40
40538;DHT22;27925;41.874;12.526;2023-04-23T09:19:49;23.20;52.40
40538;DHT22;27925;41.874;12.526;2023-04-23T09:22:36;23.20;51.50
40538;DHT22;27925;41.874;12.526;2023-04-23T09:25:02;23.10;51.20
40538;DHT22;27925;41.874;12.526;2023-04-23T09:27:30;23.10;50.80
40538;DHT22;27925;41.874;12.526;2023-04-23T09:29:56;22.90;50.60
40538;DHT22;27925;41.874;12.526;2023-04-23T09:32:31;22.90;50.40
40538;DHT22;27925;41.874;12.526;2023-04-23T09:34:58;22.80;50.50
40538;DHT22;27925;41.874;12.526;2023-04-23T09:37:26;22.80;50.70
40538;DHT22;27925;41.874;12.526;2023-04-23T09:39:53;22.90;50.90
40538;DHT22;27925;41.874;12.526;2023-04-23T09:42:22;22.80;51.10
40538;DHT22;27925;41.874;12.526;2023-04-23T09:45:14;23.00;51.30
40538;DHT22;27925;41.874;12.526;2023-04-23T09:47:48;22.90;51.50
40538;DHT22;27925;41.874;12.526;2023-04-23T09:50:14;22.90;51.20
40538;DHT22;27925;41.874;12.526;2023-04-23T09:52:39;22.90;51.10
40538;DHT22;27925;41.874;12.526;2023-04-23T09:55:06;22.90;50.80
40538;DHT22;27925;41.874;12.526;2023-04-23T09:57:51;22.80;50.10
40538;DHT22;27925;41.874;12.526;2023-04-23T10:00:19;22.80;50.30
40538;DHT22;27925;41.874;12.526;2023-04-23T10:02:49;22.80;50.30
40538;DHT22;27925;41.874;12.526;2023-04-23T10:05:15;22.80;50.50
40538;DHT22;27925;41.874;12.526;2023-04-23T10:07:43;22.80;50.20
40538;DHT22;27925;41.874;12.526;2023-04-23T10:10:10;22.90;50.00
40538;DHT22;27925;41.874;12.526;2023-04-23T10:12:36;23.00;49.80
40538;DHT22;27925;41.874;12.526;2023-04-23T10:15:04;23.00;50.00
40538;DHT22;27925;41.874;12.526;2023-04-23T10:17:30;23.00;50.10
40538;DHT22;27925;41.874;12.526;2023-04-23T10:19:57;23.10;49.80
40538;DHT22;27925;41.874;12.526;2023-04-23T10:22:27;23.20;49.40
40538;DHT22;27925;41.874;12.526;2023-04-23T10:24:55;23.20;49.40
40538;DHT22;27925;41.874;12.526;2023-04-23T10:27:27;23.30;48.50
40538;DHT22;27925;41.874;12.526;2023-04-23T10:29:53;23.30;48.00
40538;DHT22;27925;41.874;12.526;2023-04-23T10:32:20;23.30;47.70
40538;DHT22;27925;41.874;12.526;2023-04-23T10:34:46;23.30;47.90
40538;DHT22;27925;41.874;12.526;2023-04-23T10:37:13;23.30;48.50
40538;DHT22;27925;41.874;12.526;2023-04-23T10:39:43;23.30;49.30
40538;DHT22;27925;41.874;12.526;2023-04-23T10:42:09;23.30;49.10
40538;DHT22;27925;41.874;12.526;2023-04-23T10:44:37;23.30;49.40
40538;DHT22;27925;41.874;12.526;2023-04-23T10:47:03;23.30;49.50
40538;DHT22;27925;41.874;12.526;2023-04-23T10:49:31;23.40;49.20
40538;DHT22;27925;41.874;12.526;2023-04-23T10:51:59;23.40;49.30
40538;DHT22;27925;41.874;12.526;2023-04-23T10:54:31;23.50;49.30
40538;DHT22;27925;41.874;12.526;2023-04-23T10:57:02;23.50;49.10
40538;DHT22;27925;41.874;12.526;2023-04-23T10:59:29;23.50;49.40
40538;DHT22;27925;41.874;12.526;2023-04-23T11:02:06;23.50;49.70
40538;DHT22;27925;41.874;12.526;2023-04-23T11:04:33;23.50;48.90
40538;DHT22;27925;41.874;12.526;2023-04-23T11:07:06;23.60;50.20
40538;DHT22;27925;41.874;12.526;2023-04-23T11:12:01;23.60;49.90
40538;DHT22;27925;41.874;12.526;2023-04-23T11:14:34;23.70;49.90
40538;DHT22;27925;41.874;12.526;2023-04-23T11:17:02;23.80;49.70
40538;DHT22;27925;41.874;12.526;2023-04-23T11:19:27;23.90;49.50
40538;DHT22;27925;41.874;12.526;2023-04-23T11:22:00;23.90;48.70
40538;DHT22;27925;41.874;12.526;2023-04-23T11:24:31;24.00;47.20
40538;DHT22;27925;41.874;12.526;2023-04-23T11:26:58;24.00;47.00
40538;DHT22;27925;41.874;12.526;2023-04-23T11:29:26;24.00;47.60
40538;DHT22;27925;41.874;12.526;2023-04-23T11:31:53;24.10;47.50
40538;DHT22;27925;41.874;12.526;2023-04-23T11:34:19;24.10;46.60
40538;DHT22;27925;41.874;12.526;2023-04-23T11:36:47;24.20;46.20
40538;DHT22;27925;41.874;12.526;2023-04-23T11:39:13;24.20;46.20
40538;DHT22;27925;41.874;12.526;2023-04-23T11:41:40;24.20;45.20
40538;DHT22;27925;41.874;12.526;2023-04-23T11:44:08;24.20;44.80
40538;DHT22;27925;41.874;12.526;2023-04-23T11:46:34;24.20;45.00
40538;DHT22;27925;41.874;12.526;2023-04-23T11:48:59;24.30;44.30
40538;DHT22;27925;41.874;12.526;2023-04-23T11:51:25;24.40;43.60
40538;DHT22;27925;41.874;12.526;2023-04-23T11:53:51;24.50;43.50
40538;DHT22;27925;41.874;12.526;2023-04-23T11:56:17;24.70;43.70
40538;DHT22;27925;41.874;12.526;2023-04-23T11:58:44;24.90;43.60
40538;DHT22;27925;41.874;12.526;2023-04-23T12:01:11;25.10;43.20
40538;DHT22;27925;41.874;12.526;2023-04-23T12:03:39;25.30;41.50
40538;DHT22;27925;41.874;12.526;2023-04-23T12:06:05;25.40;40.90
40538;DHT22;27925;41.874;12.526;2023-04-23T12:08:33;25.40;40.10
40538;DHT22;27925;41.874;12.526;2023-04-23T12:11:04;25.50;39.70
40538;DHT22;27925;41.874;12.526;2023-04-23T12:13:31;25.50;38.60
40538;DHT22;27925;41.874;12.526;2023-04-23T12:16:02;25.60;38.10
40538;DHT22;27925;41.874;12.526;2023-04-23T12:18:30;25.50;39.40
40538;DHT22;27925;41.874;12.526;2023-04-23T12:21:17;25.50;39.90
40538;DHT22;27925;41.874;12.526;2023-04-23T12:23:43;25.60;40.20
40538;DHT22;27925;41.874;12.526;2023-04-23T12:26:14;25.60;39.90
40538;DHT22;27925;41.874;12.526;2023-04-23T12:28:46;25.60;40.70
40538;DHT22;27925;41.874;12.526;2023-04-23T12:31:20;25.50;40.70
40538;DHT22;27925;41.874;12.526;2023-04-23T12:33:46;25.40;40.60
40538;DHT22;27925;41.874;12.526;2023-04-23T12:36:14;25.20;40.50
40538;DHT22;27925;41.874;12.526;2023-04-23T12:38:41;25.10;39.60
40538;DHT22;27925;41.874;12.526;2023-04-23T12:41:07;25.10;38.30
40538;DHT22;27925;41.874;12.526;2023-04-23T12:43:32;24.90;38.10
40538;DHT22;27925;41.874;12.526;2023-04-23T12:45:58;24.80;37.90
40538;DHT22;27925;41.874;12.526;2023-04-23T12:48:24;24.70;37.90
40538;DHT22;27925;41.874;12.526;2023-04-23T12:50:50;24.70;37.40
40538;DHT22;27925;41.874;12.526;2023-04-23T12:53:16;24.70;37.30
40538;DHT22;27925;41.874;12.526;2023-04-23T12:55:42;24.70;37.40
40538;DHT22;27925;41.874;12.526;2023-04-23T12:58:10;24.70;37.00
40538;DHT22;27925;41.874;12.526;2023-04-23T13:00:35;24.70;37.10
40538;DHT22;27925;41.874;12.526;2023-04-23T13:03:01;24.70;37.10
40538;DHT22;27925;41.874;12.526;2023-04-23T13:05:27;24.80;36.90
40538;DHT22;27925;41.874;12.526;2023-04-23T13:07:53;24.90;36.80
40538;DHT22;27925;41.874;12.526;2023-04-23T13:10:19;25.00;36.30
40538;DHT22;27925;41.874;12.526;2023-04-23T13:12:45;25.10;36.20
40538;DHT22;27925;41.874;12.526;2023-04-23T13:15:10;25.20;36.00
40538;DHT22;27925;41.874;12.526;2023-04-23T13:17:39;25.30;34.70
40538;DHT22;27925;41.874;12.526;2023-04-23T13:20:06;25.50;35.30
40538;DHT22;27925;41.874;12.526;2023-04-23T13:22:31;25.60;33.90
40538;DHT22;27925;41.874;12.526;2023-04-23T13:24:58;25.60;34.10
40538;DHT22;27925;41.874;12.526;2023-04-23T13:27:25;25.70;33.80
40538;DHT22;27925;41.874;12.526;2023-04-23T13:29:51;25.70;32.90
40538;DHT22;27925;41.874;12.526;2023-04-23T13:32:17;25.70;33.10
40538;DHT22;27925;41.874;12.526;2023-04-23T13:34:43;25.70;32.60
40538;DHT22;27925;41.874;12.526;2023-04-23T13:37:08;25.70;32.60
40538;DHT22;27925;41.874;12.526;2023-04-23T13:39:35;25.70;32.90
40538;DHT22;27925;41.874;12.526;2023-04-23T13:42:01;25.70;33.40
40538;DHT22;27925;41.874;12.526;2023-04-23T13:44:29;25.70;33.60
40538;DHT22;27925;41.874;12.526;2023-04-23T13:46:55;25.70;34.00
40538;DHT22;27925;41.874;12.526;2023-04-23T13:49:23;25.70;34.10
40538;DHT22;27925;41.874;12.526;2023-04-23T13:51:50;25.50;34.30
40538;DHT22;27925;41.874;12.526;2023-04-23T13:54:17;25.50;34.60
40538;DHT22;27925;41.874;12.526;2023-04-23T13:56:43;25.50;35.30
40538;DHT22;27925;41.874;12.526;2023-04-23T13:59:08;25.50;35.00
40538;DHT22;27925;41.874;12.526;2023-04-23T14:01:34;25.40;35.00
40538;DHT22;27925;41.874;12.526;2023-04-23T14:04:00;25.40;35.10
40538;DHT22;27925;41.874;12.526;2023-04-23T14:06:25;25.30;34.90
40538;DHT22;27925;41.874;12.526;2023-04-23T14:08:51;25.30;34.50
40538;DHT22;27925;41.874;12.526;2023-04-23T14:11:17;25.30;34.80
40538;DHT22;27925;41.874;12.526;2023-04-23T14:13:43;25.30;34.70
40538;DHT22;27925;41.874;12.526;2023-04-23T14:16:09;25.30;35.10
40538;DHT22;27925;41.874;12.526;2023-04-23T14:18:35;25.30;34.60
40538;DHT22;27925;41.874;12.526;2023-04-23T14:21:00;25.30;34.70
40538;DHT22;27925;41.874;12.526;2023-04-23T14:26:03;25.20;34.70
40538;DHT22;27925;41.874;12.526;2023-04-23T14:28:37;25.20;34.80
40538;DHT22;27925;41.874;12.526;2023-04-23T14:31:03;25.20;35.10
40538;DHT22;27925;41.874;12.526;2023-04-23T14:33:29;25.10;35.50
40538;DHT22;27925;41.874;12.526;2023-04-23T14:35:55;25.10;35.80
40538;DHT22;27925;41.874;12.526;2023-04-23T14:38:21;25.10;36.00
40538;DHT22;27925;41.874;12.526;2023-04-23T14:40:47;25.00;36.50
40538;DHT22;27925;41.874;12.526;2023-04-23T14:43:13;24.90;37.20
40538;DHT22;27925;41.874;12.526;2023-04-23T14:45:38;24.90;37.40
40538;DHT22;27925;41.874;12.526;2023-04-23T14:48:04;24.90;37.50
40538;DHT22;27925;41.874;12.526;2023-04-23T14:50:30;24.80;37.50
40538;DHT22;27925;41.874;12.526;2023-04-23T14:52:55;24.90;37.70
40538;DHT22;27925;41.874;12.526;2023-04-23T14:55:23;24.80;37.50
40538;DHT22;27925;41.874;12.526;2023-04-23T14:57:49;24.80;37.90
40538;DHT22;27925;41.874;12.526;2023-04-23T15:00:16;24.80;38.10
40538;DHT22;27925;41.874;12.526;2023-04-23T15:02:42;24.80;38.10
40538;DHT22;27925;41.874;12.526;2023-04-23T15:05:11;24.80;37.10
40538;DHT22;27925;41.874;12.526;2023-04-23T15:07:37;24.80;37.70
40538;DHT22;27925;41.874;12.526;2023-04-23T15:10:04;24.70;38.50
40538;DHT22;27925;41.874;12.526;2023-04-23T15:15:24;24.50;36.40
40538;DHT22;27925;41.874;12.526;2023-04-23T15:17:51;24.40;38.10
40538;DHT22;27925;41.874;12.526;2023-04-23T15:20:16;24.40;38.10